createdAt,value
2017-07-25T00:00:05.174Z,99.99
2017-07-25T00:00:50.540Z,99.99
2017-07-25T00:01:50.577Z,99.99
2017-07-25T00:02:50.600Z,99.99
2017-07-25T00:03:50.625Z,99.99
2017-07-25T00:04:50.643Z,99.99
2017-07-25T00:05:50.675Z,99.99
2017-07-25T00:06:50.686Z,99.99
2017-07-25T00:07:50.423Z,99.99
2017-07-25T00:08:50.746Z,99.99
2017-07-25T00:10:50.784Z,99.99
2017-07-25T00:11:50.823Z,99.99
2017-07-25T00:12:50.844Z,99.99
2017-07-25T00:13:50.869Z,99.99
2017-07-25T00:14:50.880Z,99.99
2017-07-25T00:15:50.925Z,99.99
2017-07-25T00:16:50.944Z,99.99
2017-07-25T00:17:50.964Z,99.99
2017-07-25T00:18:50.984Z,99.99
2017-07-25T00:19:51.020Z,99.99
2017-07-25T00:21:51.054Z,99.99
2017-07-25T00:22:51.097Z,99.99
2017-07-25T00:23:51.116Z,99.99
2017-07-25T00:24:51.138Z,99.99
2017-07-25T00:26:51.191Z,99.99
2017-07-25T00:27:51.217Z,99.99
2017-07-25T00:28:51.228Z,99.99
2017-07-25T00:29:51.256Z,99.99
2017-07-25T00:30:51.274Z,99.99
2017-07-25T00:32:05.907Z,99.99
2017-07-25T00:32:51.326Z,99.99
2017-07-25T00:33:51.364Z,99.99
2017-07-25T00:34:51.429Z,99.99
2017-07-25T00:35:51.397Z,99.99
2017-07-25T00:36:51.421Z,99.99
2017-07-25T00:37:51.461Z,99.99
2017-07-25T00:38:51.475Z,99.99
2017-07-25T00:39:51.508Z,99.99
2017-07-25T00:40:51.214Z,99.99
2017-07-25T00:41:51.242Z,99.99
2017-07-25T00:42:51.562Z,99.99
2017-07-25T00:43:51.292Z,99.99
2017-07-25T00:44:51.634Z,99.99
2017-07-25T00:45:51.648Z,99.99
2017-07-25T00:46:51.661Z,99.99
2017-07-25T00:48:06.294Z,99.99
2017-07-25T00:48:51.729Z,99.99
2017-07-25T00:49:51.746Z,99.99
2017-07-25T00:50:51.794Z,99.99
2017-07-25T00:51:51.806Z,99.99
2017-07-25T00:52:51.811Z,99.99
2017-07-25T00:53:51.841Z,99.99
2017-07-25T00:54:51.867Z,99.99
2017-07-25T00:55:51.897Z,99.99
2017-07-25T00:56:51.908Z,99.99
2017-07-25T00:57:51.943Z,99.99
2017-07-25T00:58:51.963Z,99.99
2017-07-25T00:59:51.989Z,99.99
2017-07-25T01:00:51.693Z,99.99
2017-07-25T01:01:52.041Z,99.99
2017-07-25T01:02:52.069Z,99.99
2017-07-25T01:04:06.687Z,99.99
2017-07-25T01:04:52.115Z,99.99
2017-07-25T01:05:51.827Z,99.99
2017-07-25T01:06:52.151Z,99.99
2017-07-25T01:07:52.187Z,99.99
2017-07-25T01:08:52.203Z,99.99
2017-07-25T01:09:52.233Z,99.99
2017-07-25T01:10:52.258Z,99.99
2017-07-25T01:11:52.291Z,99.99
2017-07-25T01:12:52.303Z,99.99
2017-07-25T01:13:52.320Z,99.99
2017-07-25T01:14:52.359Z,99.99
2017-07-25T01:15:52.385Z,99.99
2017-07-25T01:16:52.403Z,99.99
2017-07-25T01:17:52.416Z,99.99
2017-07-25T01:18:52.501Z,99.99
2017-07-25T01:20:07.071Z,99.99
2017-07-25T01:20:52.505Z,99.99
2017-07-25T01:23:52.573Z,99.99
2017-07-25T01:24:52.597Z,99.99
2017-07-25T01:25:52.618Z,99.99
2017-07-25T01:26:52.634Z,99.99
2017-07-25T01:27:52.672Z,99.99
2017-07-25T01:28:52.693Z,99.99
2017-07-25T01:29:52.722Z,99.99
2017-07-25T01:30:52.733Z,99.99
2017-07-25T01:31:52.775Z,99.99
2017-07-25T01:32:52.792Z,99.99
2017-07-25T01:33:52.816Z,99.99
2017-07-25T01:35:07.440Z,99.99
2017-07-25T01:35:52.870Z,99.99
2017-07-25T01:36:52.939Z,99.99
2017-07-25T01:37:52.608Z,99.99
2017-07-25T01:38:52.964Z,99.99
2017-07-25T01:39:52.976Z,99.99
2017-07-25T01:40:52.665Z,99.99
2017-07-25T01:41:53.012Z,99.99
2017-07-25T01:42:53.020Z,99.99
2017-07-25T01:45:53.098Z,99.99
2017-07-25T01:46:53.129Z,99.99
2017-07-25T01:47:53.150Z,99.99
2017-07-25T01:48:53.181Z,99.99
2017-07-25T01:49:52.892Z,99.99
2017-07-25T01:50:53.239Z,99.99
2017-07-25T01:51:53.249Z,99.99
2017-07-25T01:52:53.266Z,99.99
2017-07-25T01:53:53.299Z,99.99
2017-07-25T01:54:53.326Z,99.99
2017-07-25T01:55:53.366Z,99.99
2017-07-25T01:57:53.402Z,99.99
2017-07-25T01:58:53.421Z,99.99
2017-07-25T01:59:53.441Z,99.99
2017-07-25T02:01:53.483Z,99.99
2017-07-25T02:02:53.504Z,99.99
2017-07-25T02:03:53.548Z,99.99
2017-07-25T02:04:53.555Z,99.99
2017-07-25T02:05:53.589Z,99.99
2017-07-25T02:07:08.208Z,99.99
2017-07-25T02:07:53.639Z,99.99
2017-07-25T02:08:53.654Z,99.99
2017-07-25T02:09:53.688Z,99.99
2017-07-25T02:10:53.707Z,99.99
2017-07-25T02:11:53.429Z,99.99
2017-07-25T02:12:53.760Z,99.99
2017-07-25T02:13:53.783Z,99.99
2017-07-25T02:14:53.803Z,99.99
2017-07-25T02:15:53.820Z,99.99
2017-07-25T02:16:53.546Z,99.99
2017-07-25T02:17:53.869Z,99.99
2017-07-25T02:18:53.908Z,99.99
2017-07-25T02:19:53.918Z,99.99
2017-07-25T02:20:53.951Z,99.99
2017-07-25T02:21:53.973Z,99.99
2017-07-25T02:23:08.594Z,99.99
2017-07-25T02:23:54.026Z,99.99
2017-07-25T02:24:54.051Z,99.99
2017-07-25T02:25:53.763Z,99.99
2017-07-25T02:26:54.100Z,99.99
2017-07-25T02:27:54.119Z,99.99
2017-07-25T02:28:54.141Z,99.99
2017-07-25T02:29:54.173Z,99.99
2017-07-25T02:30:54.193Z,99.99
2017-07-25T02:31:54.209Z,99.99
2017-07-25T02:32:53.935Z,99.99
2017-07-25T02:33:54.252Z,99.99
2017-07-25T02:34:54.287Z,99.99
2017-07-25T02:35:54.315Z,99.99
2017-07-25T02:36:54.324Z,99.99
2017-07-25T02:37:54.363Z,99.99
2017-07-25T02:39:08.978Z,99.99
2017-07-25T02:39:54.405Z,99.99
2017-07-25T02:40:54.417Z,99.99
2017-07-25T02:41:54.477Z,99.99
2017-07-25T02:42:54.486Z,99.99
2017-07-25T02:43:54.501Z,99.99
2017-07-25T02:44:54.511Z,99.99
2017-07-25T02:45:54.550Z,99.99
2017-07-25T02:46:54.572Z,99.99
2017-07-25T02:48:54.624Z,99.99
2017-07-25T02:49:54.633Z,99.99
2017-07-25T02:50:54.672Z,99.99
2017-07-25T02:51:54.691Z,99.99
2017-07-25T02:52:54.716Z,99.99
2017-07-25T02:55:09.361Z,99.99
2017-07-25T02:55:54.775Z,99.99
2017-07-25T02:56:54.809Z,99.99
2017-07-25T02:57:54.833Z,99.99
2017-07-25T02:58:54.865Z,99.99
2017-07-25T02:59:54.886Z,99.99
2017-07-25T03:00:54.904Z,99.99
2017-07-25T03:01:54.916Z,99.99
2017-07-25T03:02:54.950Z,99.99
2017-07-25T03:03:54.981Z,99.99
2017-07-25T03:04:54.689Z,99.99
2017-07-25T03:06:55.055Z,99.99
2017-07-25T03:07:55.067Z,99.99
2017-07-25T03:08:54.789Z,99.99
2017-07-25T03:10:09.720Z,99.99
2017-07-25T03:10:55.135Z,99.99
2017-07-25T03:11:54.859Z,99.99
2017-07-25T03:12:55.180Z,99.99
2017-07-25T03:15:55.270Z,99.99
2017-07-25T03:16:55.286Z,99.99
2017-07-25T03:17:55.311Z,99.99
2017-07-25T03:18:55.331Z,99.99
2017-07-25T03:19:55.364Z,99.99
2017-07-25T03:20:55.384Z,99.99
2017-07-25T03:21:55.413Z,99.99
2017-07-25T03:22:55.424Z,99.99
2017-07-25T03:23:55.454Z,99.99
2017-07-25T03:24:55.477Z,99.99
2017-07-25T03:25:55.547Z,99.99
2017-07-25T03:26:55.529Z,99.99
2017-07-25T03:27:55.541Z,99.99
2017-07-25T03:28:55.266Z,99.99
2017-07-25T03:29:55.592Z,99.99
2017-07-25T03:30:55.629Z,99.99
2017-07-25T03:31:55.637Z,99.99
2017-07-25T03:32:55.672Z,99.99
2017-07-25T03:33:55.681Z,99.99
2017-07-25T03:34:55.721Z,99.99
2017-07-25T03:35:55.731Z,99.99
2017-07-25T03:36:55.752Z,99.99
2017-07-25T03:37:55.776Z,99.99
2017-07-25T03:38:55.809Z,99.99
2017-07-25T03:39:55.891Z,99.99
2017-07-25T03:40:55.852Z,99.99
2017-07-25T03:42:10.481Z,99.99
2017-07-25T03:42:55.907Z,99.99
2017-07-25T03:43:55.931Z,99.99
2017-07-25T03:44:55.942Z,99.99
2017-07-25T03:45:55.974Z,99.99
2017-07-25T03:48:56.050Z,99.99
2017-07-25T03:49:56.100Z,99.99
2017-07-25T03:50:56.088Z,99.99
2017-07-25T03:51:56.127Z,99.99
2017-07-25T03:52:56.143Z,99.99
2017-07-25T03:53:56.168Z,99.99
2017-07-25T03:54:56.196Z,99.99
2017-07-25T03:55:56.208Z,99.99
2017-07-25T03:56:56.244Z,99.99
2017-07-25T03:58:10.859Z,99.99
2017-07-25T03:58:56.288Z,99.99
2017-07-25T03:59:56.299Z,99.99
2017-07-25T04:00:56.369Z,99.99
2017-07-25T04:01:56.365Z,99.99
2017-07-25T04:02:56.379Z,99.99
2017-07-25T04:04:56.426Z,99.99
2017-07-25T04:05:56.453Z,99.99
2017-07-25T04:07:56.541Z,99.99
2017-07-25T04:08:56.528Z,99.99
2017-07-25T04:09:56.545Z,99.99
2017-07-25T04:10:56.569Z,99.99
2017-07-25T04:11:56.590Z,99.99
2017-07-25T04:12:56.622Z,99.99
2017-07-25T04:14:11.238Z,99.99
2017-07-25T04:14:56.668Z,99.99
2017-07-25T04:15:56.691Z,99.99
2017-07-25T04:16:57.002Z,99.99
2017-07-25T04:17:56.732Z,99.99
2017-07-25T04:18:56.765Z,99.99
2017-07-25T04:19:56.774Z,99.99
2017-07-25T04:20:56.804Z,99.99
2017-07-25T04:21:56.835Z,99.99
2017-07-25T04:22:56.858Z,99.99
2017-07-25T04:23:56.864Z,99.99
2017-07-25T04:24:56.899Z,99.99
2017-07-25T04:25:56.929Z,99.99
2017-07-25T04:26:56.949Z,99.99
2017-07-25T04:27:56.665Z,99.99
2017-07-25T04:28:57.050Z,99.99
2017-07-25T04:30:11.616Z,99.99
2017-07-25T04:30:57.039Z,99.99
2017-07-25T04:31:57.065Z,99.99
2017-07-25T04:32:57.102Z,99.99
2017-07-25T04:34:57.138Z,99.99
2017-07-25T04:35:57.166Z,99.99
2017-07-25T04:36:57.189Z,99.99
2017-07-25T04:37:57.218Z,99.99
2017-07-25T04:38:57.219Z,99.99
2017-07-25T04:39:57.258Z,99.99
2017-07-25T04:40:57.287Z,99.99
2017-07-25T04:41:57.308Z,99.99
2017-07-25T04:42:57.322Z,99.99
2017-07-25T04:43:57.356Z,99.99
2017-07-25T04:45:11.975Z,99.99
2017-07-25T04:45:57.092Z,99.99
2017-07-25T04:46:57.416Z,99.99
2017-07-25T04:47:57.455Z,99.99
2017-07-25T04:48:57.462Z,99.99
2017-07-25T04:49:57.491Z,99.99
2017-07-25T04:50:57.523Z,99.99
2017-07-25T04:51:57.232Z,99.99
2017-07-25T04:52:57.576Z,99.99
2017-07-25T04:53:57.584Z,99.99
2017-07-25T04:54:57.304Z,99.99
2017-07-25T04:55:57.629Z,99.99
2017-07-25T04:56:57.658Z,99.99
2017-07-25T04:57:57.684Z,99.99
2017-07-25T04:58:57.707Z,99.99
2017-07-25T05:00:57.749Z,99.99
2017-07-25T05:01:57.775Z,99.99
2017-07-25T05:02:57.537Z,99.99
2017-07-25T05:03:57.825Z,99.99
2017-07-25T05:04:57.846Z,99.99
2017-07-25T05:05:57.868Z,99.99
2017-07-25T05:06:57.895Z,99.99
2017-07-25T05:07:57.917Z,99.99
2017-07-25T05:08:57.944Z,99.99
2017-07-25T05:09:57.659Z,99.99
2017-07-25T05:10:57.979Z,99.99
2017-07-25T05:12:58.040Z,99.99
2017-07-25T05:13:58.062Z,99.99
2017-07-25T05:14:58.087Z,99.99
2017-07-25T05:15:58.116Z,99.99
2017-07-25T05:17:12.731Z,99.99
2017-07-25T05:18:58.181Z,99.99
2017-07-25T05:20:58.229Z,99.99
2017-07-25T05:21:58.240Z,99.99
2017-07-25T05:23:58.296Z,99.99
2017-07-25T05:24:58.313Z,99.99
2017-07-25T05:25:58.040Z,99.99
2017-07-25T05:26:58.055Z,99.99
2017-07-25T05:27:58.397Z,99.99
2017-07-25T05:28:58.419Z,99.99
2017-07-25T05:29:58.444Z,99.99
2017-07-25T05:30:58.461Z,99.99
2017-07-25T05:31:58.491Z,99.99
2017-07-25T05:33:13.109Z,99.99
2017-07-25T05:33:58.224Z,99.99
2017-07-25T05:34:58.567Z,99.99
2017-07-25T05:35:58.585Z,99.99
2017-07-25T05:36:58.607Z,99.99
2017-07-25T05:37:58.631Z,99.99
2017-07-25T05:38:58.654Z,99.99
2017-07-25T05:39:58.690Z,99.99
2017-07-25T05:40:58.750Z,99.99
2017-07-25T05:41:58.726Z,99.99
2017-07-25T05:42:58.742Z,99.99
2017-07-25T05:43:58.768Z,99.99
2017-07-25T05:44:58.484Z,99.99
2017-07-25T05:45:58.823Z,99.99
2017-07-25T05:46:58.538Z,99.99
2017-07-25T05:47:58.556Z,99.99
2017-07-25T05:49:13.489Z,99.99
2017-07-25T05:49:58.911Z,99.99
2017-07-25T05:50:58.930Z,99.99
2017-07-25T05:51:58.966Z,99.99
2017-07-25T05:52:58.984Z,99.99
2017-07-25T05:53:58.701Z,99.99
2017-07-25T05:54:59.032Z,99.99
2017-07-25T05:55:59.047Z,99.99
2017-07-25T05:56:59.074Z,99.99
2017-07-25T05:57:59.093Z,99.99
2017-07-25T05:58:59.134Z,99.99
2017-07-25T05:59:59.139Z,99.99
2017-07-25T06:00:59.177Z,99.99
2017-07-25T06:01:59.185Z,99.99
2017-07-25T06:02:59.222Z,99.99
2017-07-25T06:03:59.241Z,99.99
2017-07-25T06:05:13.866Z,99.99
2017-07-25T06:05:59.286Z,99.99
2017-07-25T06:07:59.336Z,99.99
2017-07-25T06:08:59.412Z,99.99
2017-07-25T06:09:59.383Z,99.99
2017-07-25T06:10:59.412Z,99.99
2017-07-25T06:11:59.431Z,99.99
2017-07-25T06:12:59.461Z,99.99
2017-07-25T06:13:59.481Z,99.99
2017-07-25T06:14:59.502Z,99.99
2017-07-25T06:15:59.542Z,99.99
2017-07-25T06:16:59.554Z,99.99
2017-07-25T06:17:59.578Z,99.99
2017-07-25T06:18:59.593Z,99.99
2017-07-25T06:20:14.223Z,99.99
2017-07-25T06:20:59.689Z,99.99
2017-07-25T06:21:59.356Z,99.99
2017-07-25T06:22:59.698Z,99.99
2017-07-25T06:23:59.716Z,99.99
2017-07-25T06:24:59.742Z,99.99
2017-07-25T06:25:59.773Z,99.99
2017-07-25T06:26:59.793Z,99.99
2017-07-25T06:28:59.829Z,99.99
2017-07-25T06:29:59.862Z,99.99
2017-07-25T06:30:59.878Z,99.99
2017-07-25T06:31:59.910Z,99.99
2017-07-25T06:32:59.937Z,99.99
2017-07-25T06:33:59.952Z,99.99
2017-07-25T06:34:59.987Z,99.99
2017-07-25T06:36:00.011Z,99.99
2017-07-25T06:37:00.017Z,99.99
2017-07-25T06:38:00.049Z,99.99
2017-07-25T06:39:00.071Z,99.99
2017-07-25T06:40:00.104Z,99.99
2017-07-25T06:41:00.122Z,99.99
2017-07-25T06:42:00.146Z,99.99
2017-07-25T06:43:00.161Z,99.99
2017-07-25T06:44:00.202Z,99.99
2017-07-25T06:45:00.216Z,99.99
2017-07-25T06:45:59.932Z,99.99
2017-07-25T06:47:00.267Z,99.99
2017-07-25T06:48:00.274Z,99.99
2017-07-25T06:49:00.310Z,99.99
2017-07-25T06:50:00.341Z,99.99
2017-07-25T06:51:00.347Z,99.99
2017-07-25T06:52:14.981Z,99.99
2017-07-25T06:53:00.411Z,99.99
2017-07-25T06:54:00.434Z,99.99
2017-07-25T06:55:00.451Z,99.99
2017-07-25T06:56:00.470Z,99.99
2017-07-25T06:57:00.501Z,99.99
2017-07-25T06:58:00.516Z,99.99
2017-07-25T06:59:00.536Z,99.99
2017-07-25T07:00:00.568Z,99.99
2017-07-25T07:01:00.640Z,99.99
2017-07-25T07:02:00.622Z,99.99
2017-07-25T07:03:00.654Z,99.99
2017-07-25T07:04:00.664Z,99.99
2017-07-25T07:05:00.736Z,99.99
2017-07-25T07:06:00.705Z,99.99
2017-07-25T07:07:00.754Z,99.99
2017-07-25T07:08:15.356Z,99.99
2017-07-25T07:09:00.789Z,99.99
2017-07-25T07:10:00.799Z,99.99
2017-07-25T07:11:00.836Z,99.99
2017-07-25T07:12:00.846Z,99.99
2017-07-25T07:13:00.927Z,99.99
2017-07-25T07:14:00.890Z,99.99
2017-07-25T07:15:00.936Z,99.99
2017-07-25T07:16:00.958Z,99.99
2017-07-25T07:17:00.971Z,99.99
2017-07-25T07:19:01.013Z,99.99
2017-07-25T07:20:01.048Z,99.99
2017-07-25T07:21:01.072Z,99.99
2017-07-25T07:22:01.078Z,99.99
2017-07-25T07:23:01.121Z,99.99
2017-07-25T07:24:15.737Z,99.99
2017-07-25T07:25:01.164Z,99.99
2017-07-25T07:26:01.190Z,99.99
2017-07-25T07:27:01.250Z,99.99
2017-07-25T07:28:01.225Z,99.99
2017-07-25T07:29:01.258Z,99.99
2017-07-25T07:30:01.282Z,99.99
2017-07-25T07:31:01.305Z,99.99
2017-07-25T07:32:01.317Z,99.99
2017-07-25T07:33:01.354Z,99.99
2017-07-25T07:34:01.384Z,99.99
2017-07-25T07:35:01.389Z,99.99
2017-07-25T07:36:01.472Z,99.99
2017-07-25T07:37:01.449Z,99.99
2017-07-25T07:38:01.478Z,99.99
2017-07-25T07:39:01.482Z,99.99
2017-07-25T07:40:16.116Z,99.99
2017-07-25T07:41:01.233Z,99.99
2017-07-25T07:42:01.571Z,99.99
2017-07-25T07:43:01.585Z,99.99
2017-07-25T07:44:01.606Z,99.99
2017-07-25T07:45:01.638Z,99.99
2017-07-25T07:46:01.655Z,99.99
2017-07-25T07:47:01.680Z,99.99
2017-07-25T07:48:01.695Z,99.99
2017-07-25T07:49:01.730Z,99.99
2017-07-25T07:50:01.750Z,99.99
2017-07-25T07:51:01.766Z,99.99
2017-07-25T07:52:01.798Z,99.99
2017-07-25T07:53:01.824Z,99.99
2017-07-25T07:54:01.838Z,99.99
2017-07-25T07:55:16.472Z,99.99
2017-07-25T07:56:01.894Z,99.99
2017-07-25T07:57:01.610Z,99.99
2017-07-25T07:58:01.944Z,99.99
2017-07-25T07:59:01.971Z,99.99
2017-07-25T08:00:01.978Z,99.99
2017-07-25T08:01:02.013Z,99.99
2017-07-25T08:02:02.039Z,99.99
2017-07-25T08:04:02.092Z,99.99
2017-07-25T08:05:02.114Z,99.99
2017-07-25T08:06:02.136Z,99.99
2017-07-25T08:07:02.144Z,99.99
2017-07-25T08:08:02.381Z,99.99
2017-07-25T08:09:02.203Z,99.99
2017-07-25T08:10:02.233Z,99.99
2017-07-25T08:11:02.250Z,99.99
2017-07-25T08:12:02.267Z,99.99
2017-07-25T08:13:02.304Z,99.99
2017-07-25T08:14:02.313Z,99.99
2017-07-25T08:15:02.352Z,99.99
2017-07-25T08:18:02.423Z,99.99
2017-07-25T08:19:02.429Z,99.99
2017-07-25T08:20:02.466Z,99.99
2017-07-25T08:21:02.496Z,99.99
2017-07-25T08:22:02.511Z,99.99
2017-07-25T08:23:02.585Z,99.99
2017-07-25T08:24:02.608Z,99.99
2017-07-25T08:26:02.609Z,99.99
2017-07-25T08:27:17.223Z,99.99
2017-07-25T08:28:02.660Z,99.99
2017-07-25T08:29:02.677Z,99.99
2017-07-25T08:31:02.729Z,99.99
2017-07-25T08:32:02.735Z,99.99
2017-07-25T08:33:02.787Z,99.99
2017-07-25T08:34:02.793Z,99.99
2017-07-25T08:35:02.817Z,99.99
2017-07-25T08:37:02.853Z,99.99
2017-07-25T08:39:02.925Z,99.99
2017-07-25T08:40:02.926Z,99.99
2017-07-25T08:41:02.965Z,99.99
2017-07-25T08:42:02.677Z,99.99
2017-07-25T08:43:17.607Z,99.99
2017-07-25T08:44:03.035Z,99.99
2017-07-25T08:45:02.747Z,99.99
2017-07-25T08:46:03.083Z,99.99
2017-07-25T08:47:02.789Z,99.99
2017-07-25T08:48:02.820Z,99.99
2017-07-25T08:49:03.151Z,99.99
2017-07-25T08:50:03.175Z,99.99
2017-07-25T08:51:03.198Z,99.99
2017-07-25T08:52:03.208Z,99.99
2017-07-25T08:53:03.241Z,99.99
2017-07-25T08:54:02.959Z,99.99
2017-07-25T08:55:03.300Z,99.99
2017-07-25T08:57:03.026Z,99.99
2017-07-25T08:58:03.367Z,99.99
2017-07-25T08:59:17.982Z,99.99
2017-07-25T09:00:03.409Z,99.99
2017-07-25T09:01:03.437Z,99.99
2017-07-25T09:02:03.462Z,99.99
2017-07-25T09:03:03.492Z,99.99
2017-07-25T09:04:03.546Z,99.99
2017-07-25T09:05:03.535Z,99.99
2017-07-25T09:06:03.554Z,99.99
2017-07-25T09:07:03.581Z,99.99
2017-07-25T09:08:03.605Z,99.99
2017-07-25T09:09:03.630Z,99.99
2017-07-25T09:10:03.343Z,99.99
2017-07-25T09:11:03.669Z,99.99
2017-07-25T09:13:03.719Z,99.99
2017-07-25T09:14:03.742Z,99.99
2017-07-25T09:15:18.371Z,99.99
2017-07-25T09:16:03.788Z,99.99
2017-07-25T09:18:03.844Z,99.99
2017-07-25T09:19:03.870Z,99.99
2017-07-25T09:20:03.893Z,99.99
2017-07-25T09:21:03.923Z,99.99
2017-07-25T09:22:03.930Z,99.99
2017-07-25T09:23:03.963Z,99.99
2017-07-25T09:24:03.977Z,99.99
2017-07-25T09:25:04.012Z,99.99
2017-07-25T09:27:04.064Z,99.99
2017-07-25T09:28:04.086Z,99.99
2017-07-25T09:29:04.095Z,99.99
2017-07-25T09:30:18.728Z,99.99
2017-07-25T09:31:04.143Z,99.99
2017-07-25T09:32:04.176Z,99.99
2017-07-25T09:33:04.195Z,99.99
2017-07-25T09:34:04.282Z,99.99
2017-07-25T09:35:04.256Z,99.99
2017-07-25T09:36:04.285Z,99.99
2017-07-25T09:37:04.296Z,99.99
2017-07-25T09:38:04.314Z,99.99
2017-07-25T09:39:04.352Z,99.99
2017-07-25T09:40:04.372Z,99.99
2017-07-25T09:41:04.397Z,99.99
2017-07-25T09:42:04.419Z,99.99
2017-07-25T09:43:04.137Z,99.99
2017-07-25T09:44:04.469Z,99.99
2017-07-25T09:45:04.492Z,99.99
2017-07-25T09:47:04.540Z,99.99
2017-07-25T09:48:04.555Z,99.99
2017-07-25T09:49:04.587Z,99.99
2017-07-25T09:50:04.616Z,99.99
2017-07-25T09:51:04.330Z,99.99
2017-07-25T09:52:04.651Z,99.99
2017-07-25T09:53:04.692Z,99.99
2017-07-25T09:54:04.752Z,99.99
2017-07-25T09:55:04.737Z,99.99
2017-07-25T09:56:04.750Z,99.99
2017-07-25T09:57:04.786Z,99.99
2017-07-25T09:59:04.524Z,99.99
2017-07-25T10:00:04.547Z,99.99
2017-07-25T10:02:19.505Z,99.99
2017-07-25T10:03:04.929Z,99.99
2017-07-25T10:04:04.957Z,99.99
2017-07-25T10:05:04.676Z,99.99
2017-07-25T10:08:04.737Z,99.99
2017-07-25T10:09:05.125Z,99.99
2017-07-25T10:10:05.134Z,99.99
2017-07-25T10:12:05.148Z,99.99
2017-07-25T10:14:05.198Z,99.99
2017-07-25T10:15:04.916Z,99.99
2017-07-25T10:16:05.249Z,99.99
2017-07-25T10:17:05.273Z,99.99
2017-07-25T10:18:19.896Z,99.99
2017-07-25T10:19:05.322Z,99.99
2017-07-25T10:20:05.345Z,99.99
2017-07-25T10:21:05.430Z,99.99
2017-07-25T10:23:05.413Z,99.99
2017-07-25T10:24:05.446Z,99.99
2017-07-25T10:25:05.475Z,98.53
2017-07-25T10:26:05.187Z,97.76
2017-07-25T10:27:05.523Z,98.43
2017-07-25T10:28:05.544Z,99.68
2017-07-25T10:29:05.571Z,99.1
2017-07-25T10:30:05.287Z,98.63
2017-07-25T10:31:05.629Z,96.32
2017-07-25T10:32:05.658Z,96.99
2017-07-25T10:33:05.679Z,98.38
2017-07-25T10:34:20.300Z,96.8
2017-07-25T10:35:05.719Z,97.19
2017-07-25T10:36:05.747Z,97.96
2017-07-25T10:39:05.829Z,94.73
2017-07-25T10:40:05.845Z,94.88
2017-07-25T10:41:05.924Z,95.75
2017-07-25T10:42:05.899Z,94.69
2017-07-25T10:43:05.928Z,96.13
2017-07-25T10:44:05.634Z,94.45
2017-07-25T10:45:05.972Z,95.5
2017-07-25T10:46:05.994Z,93.63
2017-07-25T10:47:06.031Z,93.34
2017-07-25T10:48:06.052Z,94.88
2017-07-25T10:49:06.089Z,94.88
2017-07-25T10:50:20.696Z,95.26
2017-07-25T10:51:06.128Z,94.88
2017-07-25T10:52:06.458Z,94.11
2017-07-25T10:54:06.205Z,92.67
2017-07-25T10:55:06.229Z,93.49
2017-07-25T10:56:06.253Z,94.45
2017-07-25T10:57:05.962Z,94.54
2017-07-25T10:58:06.002Z,95.12
2017-07-25T11:01:06.074Z,93.39
2017-07-25T11:02:06.087Z,94.88
2017-07-25T11:03:06.433Z,94.64
2017-07-25T11:04:06.138Z,93.39
2017-07-25T11:05:21.081Z,94.54
2017-07-25T11:07:06.271Z,92.05
2017-07-25T11:08:06.556Z,91.95
2017-07-25T11:09:06.580Z,91.75
2017-07-25T11:10:06.603Z,91.75
2017-07-25T11:11:06.635Z,92.43
2017-07-25T11:13:06.685Z,91.61
2017-07-25T11:14:06.722Z,91.94
2017-07-25T11:15:06.722Z,90.02
2017-07-25T11:16:06.759Z,89.1
2017-07-25T11:17:06.775Z,87.37
2017-07-25T11:18:06.810Z,88.14
2017-07-25T11:19:06.823Z,90.79
2017-07-25T11:20:06.861Z,89.25
2017-07-25T11:21:06.579Z,89.64
2017-07-25T11:22:06.971Z,91.42
2017-07-25T11:23:06.935Z,93.39
2017-07-25T11:24:06.954Z,94.64
2017-07-25T11:25:06.988Z,94.78
2017-07-25T11:26:07.013Z,93.39
2017-07-25T11:27:07.046Z,93.58
2017-07-25T11:28:07.061Z,94.4
2017-07-25T11:29:07.094Z,95.03
2017-07-25T11:30:07.112Z,96.03
2017-07-25T11:31:07.139Z,95.12
2017-07-25T11:32:07.170Z,94.98
2017-07-25T11:33:07.191Z,95.07
2017-07-25T11:34:07.223Z,95.84
2017-07-25T11:35:07.293Z,96.75
2017-07-25T11:36:07.319Z,95.65
2017-07-25T11:37:21.889Z,96.89
2017-07-25T11:38:07.319Z,95.7
2017-07-25T11:39:07.589Z,96.7
2017-07-25T11:40:07.357Z,97.33
2017-07-25T11:41:07.392Z,97.24
2017-07-25T11:42:07.417Z,96.8
2017-07-25T11:43:07.448Z,96.18
2017-07-25T11:44:07.460Z,95.84
2017-07-25T11:46:07.515Z,95.5
2017-07-25T11:47:07.530Z,95.55
2017-07-25T11:48:07.612Z,95.12
2017-07-25T11:49:07.276Z,95.7
2017-07-25T11:50:07.310Z,96.66
2017-07-25T11:51:07.638Z,96.61
2017-07-25T11:52:07.716Z,95.45
2017-07-25T11:53:22.285Z,95.75
2017-07-25T11:54:07.707Z,95.65
2017-07-25T11:55:07.736Z,93.92
2017-07-25T11:56:08.071Z,92.96
2017-07-25T11:57:07.896Z,93.68
2017-07-25T11:58:07.505Z,94.83
2017-07-25T11:59:07.829Z,94.78
2017-07-25T12:00:07.873Z,93.54
2017-07-25T12:01:07.881Z,94.49
2017-07-25T12:02:07.910Z,94.78
2017-07-25T12:03:07.937Z,93.82
2017-07-25T12:04:07.968Z,94.21
2017-07-25T12:06:08.019Z,94.4
2017-07-25T12:07:08.039Z,94.21
2017-07-25T12:08:07.746Z,94.31
2017-07-25T12:09:22.686Z,93.92
2017-07-25T12:10:08.104Z,94.54
2017-07-25T12:11:08.141Z,93.87
2017-07-25T12:12:08.161Z,92.96
2017-07-25T12:13:08.186Z,93.44
2017-07-25T12:14:08.216Z,94.88
2017-07-25T12:15:08.291Z,95.26
2017-07-25T12:16:07.997Z,94.69
2017-07-25T12:17:08.272Z,94.21
2017-07-25T12:18:08.612Z,95.26
2017-07-25T12:19:08.323Z,93.54
2017-07-25T12:20:08.365Z,94.64
2017-07-25T12:21:08.377Z,94.93
2017-07-25T12:22:08.412Z,95.31
2017-07-25T12:23:08.522Z,95.98
2017-07-25T12:24:08.449Z,96.08
2017-07-25T12:25:23.079Z,96.37
2017-07-25T12:26:08.512Z,96.08
2017-07-25T12:27:08.533Z,95.79
2017-07-25T12:28:08.557Z,96.22
2017-07-25T12:29:08.574Z,96.75
2017-07-25T12:31:08.631Z,97.71
2017-07-25T12:32:08.646Z,98.1
2017-07-25T12:33:08.678Z,97.61
2017-07-25T12:35:08.783Z,98.77
2017-07-25T12:36:08.756Z,99.73
2017-07-25T12:37:08.787Z,98.67
2017-07-25T12:38:08.805Z,98.96
2017-07-25T12:39:08.830Z,98.38
2017-07-25T12:40:23.453Z,98.67
2017-07-25T12:41:08.880Z,98.63
2017-07-25T12:42:08.909Z,99.15
2017-07-25T12:43:08.971Z,99.05
2017-07-25T12:45:08.968Z,97.76
2017-07-25T12:46:09.009Z,98.72
2017-07-25T12:48:09.051Z,96.99
2017-07-25T12:49:09.083Z,96.51
2017-07-25T12:50:08.792Z,96.99
2017-07-25T12:51:09.130Z,97.57
2017-07-25T12:52:08.836Z,96.42
2017-07-25T12:53:09.175Z,96.32
2017-07-25T12:54:09.201Z,96.22
2017-07-25T12:55:09.222Z,96.42
2017-07-25T12:56:09.249Z,96.51
2017-07-25T12:57:09.273Z,95.84
2017-07-25T12:58:09.290Z,96.13
2017-07-25T12:59:09.013Z,96.7
2017-07-25T13:00:09.086Z,98.29
2017-07-25T13:01:09.421Z,98.67
2017-07-25T13:02:09.089Z,99.29
2017-07-25T13:03:09.412Z,99.99
2017-07-25T13:04:09.133Z,99.99
2017-07-25T13:05:09.529Z,99.99
2017-07-25T13:06:09.498Z,99.99
2017-07-25T13:07:09.528Z,99.99
2017-07-25T13:08:09.535Z,99.99
2017-07-25T13:09:09.265Z,99.99
2017-07-25T13:10:09.584Z,99.99
2017-07-25T13:11:09.619Z,99.99
2017-07-25T13:12:24.243Z,99.99
2017-07-25T13:13:09.675Z,99.99
2017-07-25T13:14:09.698Z,99.99
2017-07-25T13:15:09.715Z,99.99
2017-07-25T13:16:09.743Z,99.99
2017-07-25T13:17:09.764Z,99.99
2017-07-25T13:18:09.783Z,99.99
2017-07-25T13:19:09.804Z,99.99
2017-07-25T13:20:09.845Z,99.99
2017-07-25T13:21:09.856Z,99.99
2017-07-25T13:22:09.888Z,99.99
2017-07-25T13:23:09.913Z,99.99
2017-07-25T13:24:09.935Z,99.99
2017-07-25T13:25:09.961Z,99.99
2017-07-25T13:26:10.036Z,99.99
2017-07-25T13:27:10.009Z,99.99
2017-07-25T13:28:24.637Z,99.99
2017-07-25T13:29:09.750Z,99.99
2017-07-25T13:30:10.091Z,99.99
2017-07-25T13:31:09.798Z,99.99
2017-07-25T13:32:10.142Z,99.99
2017-07-25T13:33:10.148Z,99.99
2017-07-25T13:34:09.865Z,99.99
2017-07-25T13:35:10.210Z,99.99
2017-07-25T13:36:10.229Z,99.99
2017-07-25T13:38:10.267Z,99.99
2017-07-25T13:39:10.307Z,99.99
2017-07-25T13:40:10.326Z,99.99
2017-07-25T13:41:10.352Z,99.99
2017-07-25T13:42:10.377Z,99.99
2017-07-25T13:43:10.407Z,99.99
2017-07-25T13:44:25.023Z,99.99
2017-07-25T13:45:10.441Z,99.99
2017-07-25T13:46:10.474Z,99.99
2017-07-25T13:48:10.509Z,99.99
2017-07-25T13:49:10.547Z,99.99
2017-07-25T13:50:10.562Z,99.99
2017-07-25T13:51:10.600Z,99.99
2017-07-25T13:52:10.620Z,99.99
2017-07-25T13:53:10.648Z,99.99
2017-07-25T13:54:10.665Z,99.99